createdAt,value
2018-04-28T00:00:17.335Z,3.03
2018-04-28T00:02:45.452Z,2.80
2018-04-28T00:05:13.429Z,2.80
2018-04-28T00:07:41.538Z,3.03
2018-04-28T00:10:09.883Z,2.83
2018-04-28T00:12:37.918Z,3.20
2018-04-28T00:15:06.188Z,2.60
2018-04-28T00:17:37.095Z,2.80
2018-04-28T00:20:05.439Z,2.90
2018-04-28T00:22:39.781Z,2.97
2018-04-28T00:25:13.485Z,2.63
2018-04-28T00:27:52.184Z,2.80
2018-04-28T00:30:26.326Z,2.60
2018-04-28T00:32:54.570Z,2.80
2018-04-28T00:35:26.939Z,3.03
2018-04-28T00:37:59.485Z,2.87
2018-04-28T00:40:44.463Z,2.90
2018-04-28T00:43:13.399Z,3.33
2018-04-28T00:45:56.416Z,2.87
2018-04-28T00:51:39.365Z,3.03
2018-04-28T00:54:15.410Z,3.13
2018-04-28T00:56:51.195Z,3.33
2018-04-28T00:59:21.339Z,3.37
2018-04-28T01:01:53.506Z,2.97
2018-04-28T01:04:43.832Z,3.10
2018-04-28T01:07:18.953Z,3.00
2018-04-28T01:12:44.655Z,2.63
2018-04-28T01:15:15.225Z,3.53
2018-04-28T01:17:50.262Z,2.63
2018-04-28T01:20:26.246Z,2.77
2018-04-28T01:22:56.338Z,2.40
2018-04-28T01:25:44.284Z,2.40
2018-04-28T01:28:15.281Z,2.80
2018-04-28T01:30:55.131Z,2.87
2018-04-28T01:33:55.571Z,2.97
2018-04-28T01:36:34.219Z,2.73
2018-04-28T01:39:09.393Z,2.80
2018-04-28T01:41:46.432Z,2.70
2018-04-28T01:47:23.923Z,2.33
2018-04-28T01:50:01.889Z,2.80
2018-04-28T01:52:36.478Z,2.73
2018-04-28T01:55:04.910Z,3.10
2018-04-28T01:57:41.127Z,3.07
2018-04-28T02:06:25.959Z,2.83
2018-04-28T02:08:54.114Z,3.40
2018-04-28T02:11:38.961Z,3.30
2018-04-28T02:17:08.043Z,3.13
2018-04-28T02:19:45.907Z,2.90
2018-04-28T02:22:15.945Z,2.83
2018-04-28T02:25:03.874Z,3.83
2018-04-28T02:27:50.545Z,3.67
2018-04-28T02:30:19.592Z,3.00
2018-04-28T02:32:48.854Z,3.70
2018-04-28T02:35:21.026Z,3.10
2018-04-28T02:37:53.202Z,3.10
2018-04-28T02:40:41.104Z,3.50
2018-04-28T02:43:12.058Z,2.80
2018-04-28T02:46:02.846Z,3.00
2018-04-28T02:48:33.411Z,3.00
2018-04-28T02:51:28.338Z,2.60
2018-04-28T02:54:20.920Z,3.27
2018-04-28T02:56:52.680Z,3.30
2018-04-28T02:59:27.292Z,3.80
2018-04-28T03:01:59.989Z,3.00
2018-04-28T03:04:35.951Z,3.30
2018-04-28T03:07:18.697Z,3.27
2018-04-28T03:09:47.008Z,3.27
2018-04-28T03:12:16.997Z,3.40
2018-04-28T03:14:57.233Z,3.77
2018-04-28T03:17:27.441Z,3.90
2018-04-28T03:19:56.653Z,3.60
2018-04-28T03:22:25.696Z,3.47
2018-04-28T03:25:06.524Z,4.17
2018-04-28T03:30:31.573Z,3.70
2018-04-28T03:33:01.657Z,3.17
2018-04-28T03:35:49.232Z,3.23
2018-04-28T03:38:25.142Z,3.40
2018-04-28T03:40:55.154Z,3.40
2018-04-28T03:43:25.375Z,4.10
2018-04-28T03:46:14.846Z,3.40
2018-04-28T03:48:45.672Z,3.40
2018-04-28T03:51:18.748Z,3.30
2018-04-28T03:53:53.866Z,3.83
2018-04-28T03:56:26.336Z,3.40
2018-04-28T03:59:06.143Z,3.60
2018-04-28T04:01:46.698Z,3.47
2018-04-28T04:04:30.544Z,3.37
2018-04-28T04:07:24.471Z,3.80
2018-04-28T04:09:56.315Z,3.97
2018-04-28T04:12:38.319Z,3.40
2018-04-28T04:15:19.537Z,3.27
2018-04-28T04:17:57.414Z,3.07
2018-04-28T04:20:33.505Z,3.40
2018-04-28T04:23:17.296Z,3.50
2018-04-28T04:26:07.950Z,3.90
2018-04-28T04:32:03.221Z,3.20
2018-04-28T04:34:46.879Z,3.60
2018-04-28T04:37:25.070Z,3.70
2018-04-28T04:40:01.884Z,3.30
2018-04-28T04:45:42.490Z,3.43
2018-04-28T04:51:08.465Z,3.97
2018-04-28T04:53:45.554Z,3.67
2018-04-28T04:56:16.485Z,3.80
2018-04-28T04:58:46.323Z,3.37
2018-04-28T05:01:26.147Z,4.03
2018-04-28T05:04:20.162Z,3.93
2018-04-28T05:07:00.047Z,4.20
2018-04-28T05:09:40.989Z,3.73
2018-04-28T05:12:21.831Z,3.53
2018-04-28T05:14:57.806Z,3.90
2018-04-28T05:17:44.529Z,4.70
2018-04-28T05:23:15.333Z,3.93
2018-04-28T05:29:05.719Z,3.80
2018-04-28T05:32:05.482Z,3.93
2018-04-28T05:34:38.726Z,3.83
2018-04-28T05:37:18.251Z,4.60
2018-04-28T05:39:53.166Z,4.23
2018-04-28T05:42:33.051Z,4.63
2018-04-28T05:45:22.920Z,4.87
2018-04-28T05:48:16.695Z,4.50
2018-04-28T05:51:08.424Z,4.13
2018-04-28T05:53:59.212Z,4.33
2018-04-28T06:00:04.666Z,3.77
2018-04-28T06:02:39.577Z,3.87
2018-04-28T06:11:36.570Z,4.03
2018-04-28T06:14:16.366Z,3.43
2018-04-28T06:17:01.512Z,4.10
2018-04-28T06:19:52.036Z,4.33
2018-04-28T06:22:20.267Z,4.27
2018-04-28T06:24:48.508Z,3.83
2018-04-28T06:27:16.686Z,4.30
2018-04-28T06:29:45.780Z,4.63
2018-04-28T06:32:14.020Z,4.30
2018-04-28T06:34:42.207Z,4.23
2018-04-28T06:37:11.247Z,3.93
2018-04-28T06:39:39.539Z,4.27
2018-04-28T06:42:08.565Z,4.00
2018-04-28T06:44:36.691Z,4.03
2018-04-28T06:47:04.807Z,3.87
2018-04-28T06:49:33.098Z,3.93
2018-04-28T06:52:01.338Z,3.87
2018-04-28T06:54:29.535Z,3.27
2018-04-28T06:56:57.825Z,3.60
2018-04-28T06:59:25.794Z,4.20
2018-04-28T07:01:54.898Z,4.07
2018-04-28T07:04:23.003Z,3.90
2018-04-28T07:06:51.143Z,3.07
2018-04-28T07:09:19.397Z,4.03
2018-04-28T07:11:47.674Z,3.40
2018-04-28T07:14:15.823Z,3.30
2018-04-28T07:16:44.159Z,3.57
2018-04-28T07:19:12.164Z,3.80
2018-04-28T07:21:40.644Z,3.47
2018-04-28T07:24:08.816Z,3.33
2018-04-28T07:26:38.280Z,3.43
2018-04-28T07:29:06.516Z,4.00
2018-04-28T07:31:34.989Z,3.70
2018-04-28T07:34:03.036Z,4.17
2018-04-28T07:36:31.275Z,3.60
2018-04-28T07:38:59.396Z,3.67
2018-04-28T07:41:27.687Z,3.77
2018-04-28T07:43:56.793Z,3.47
2018-04-28T07:46:24.803Z,3.43
2018-04-28T07:48:52.863Z,3.43
2018-04-28T07:51:21.138Z,3.37
2018-04-28T07:53:49.369Z,3.70
2018-04-28T07:56:17.569Z,3.10
2018-04-28T07:58:45.806Z,3.93
2018-04-28T08:01:14.098Z,4.03
2018-04-28T08:03:43.696Z,3.57
2018-04-28T08:06:11.727Z,3.10
2018-04-28T08:08:39.809Z,3.53
2018-04-28T08:11:07.921Z,3.30
2018-04-28T08:13:36.460Z,3.40
2018-04-28T08:16:04.732Z,3.20
2018-04-28T08:18:32.779Z,3.40
2018-04-28T08:21:01.025Z,3.73
2018-04-28T08:23:29.180Z,4.00
2018-04-28T08:25:57.506Z,4.47
2018-04-28T08:28:25.748Z,3.27
2018-04-28T08:30:53.855Z,3.60
2018-04-28T08:33:22.237Z,3.83
2018-04-28T08:35:50.967Z,4.20
2018-04-28T08:38:19.060Z,4.00
2018-04-28T08:40:47.353Z,3.50
2018-04-28T08:43:15.592Z,3.60
2018-04-28T08:45:43.842Z,3.23
2018-04-28T08:48:11.951Z,3.93
2018-04-28T08:50:40.123Z,3.73
2018-04-28T08:53:08.377Z,3.60
2018-04-28T08:55:36.379Z,3.63
2018-04-28T08:58:04.421Z,3.83
2018-04-28T09:00:32.701Z,3.50
2018-04-28T09:03:00.948Z,3.37
2018-04-28T09:05:29.195Z,4.03
2018-04-28T09:07:57.234Z,3.90
2018-04-28T09:10:25.476Z,3.40
2018-04-28T09:12:53.524Z,4.17
2018-04-28T09:15:21.766Z,3.83
2018-04-28T09:17:50.360Z,3.93
2018-04-28T09:20:18.251Z,3.73
2018-04-28T09:22:46.397Z,4.13
2018-04-28T09:25:14.741Z,3.90
2018-04-28T09:27:42.932Z,4.00
2018-04-28T09:30:10.985Z,3.73
2018-04-28T09:32:39.164Z,4.33
2018-04-28T09:35:07.510Z,4.10
2018-04-28T09:37:35.751Z,4.17
2018-04-28T09:40:04.086Z,4.00
2018-04-28T09:42:32.186Z,4.77
2018-04-28T09:45:00.479Z,4.30
2018-04-28T09:47:28.665Z,4.37
2018-04-28T09:49:56.965Z,4.10
2018-04-28T09:52:25.211Z,5.10
2018-04-28T09:54:53.417Z,5.07
2018-04-28T09:57:21.692Z,5.27
2018-04-28T09:59:50.067Z,5.87
2018-04-28T10:02:19.122Z,5.77
2018-04-28T10:04:47.296Z,5.83
2018-04-28T10:07:15.448Z,6.60
2018-04-28T10:09:43.690Z,6.93
2018-04-28T10:12:11.935Z,6.57
2018-04-28T10:14:40.176Z,6.13
2018-04-28T10:17:08.886Z,8.00
2018-04-28T10:19:37.061Z,8.47
2018-04-28T10:22:05.838Z,8.27
2018-04-28T10:24:34.333Z,8.23
2018-04-28T10:27:03.327Z,8.90
2018-04-28T10:29:31.406Z,7.20
2018-04-28T10:31:59.552Z,5.67
2018-04-28T10:34:27.653Z,5.13
2018-04-28T10:36:55.941Z,4.20
2018-04-28T10:39:24.174Z,4.87
2018-04-28T10:41:52.416Z,5.77
2018-04-28T10:44:20.661Z,4.87
2018-04-28T10:46:48.855Z,4.53
2018-04-28T10:49:17.050Z,3.77
2018-04-28T10:51:45.975Z,3.90
2018-04-28T10:54:14.021Z,3.70
2018-04-28T10:56:42.265Z,3.10
2018-04-28T10:59:10.322Z,3.53
2018-04-28T11:01:38.556Z,3.90
2018-04-28T11:04:06.577Z,3.30
2018-04-28T11:06:34.645Z,3.43
2018-04-28T11:09:02.786Z,3.20
2018-04-28T11:11:31.296Z,3.37
2018-04-28T11:13:59.522Z,3.50
2018-04-28T11:16:27.814Z,3.47
2018-04-28T11:18:55.857Z,3.30
2018-04-28T11:21:24.104Z,3.20
2018-04-28T11:23:52.241Z,4.13
2018-04-28T11:26:20.192Z,3.53
2018-04-28T11:28:48.434Z,3.17
2018-04-28T11:31:16.543Z,3.60
2018-04-28T11:33:44.675Z,3.63
2018-04-28T11:36:13.704Z,3.93
2018-04-28T11:38:41.945Z,3.40
2018-04-28T11:41:10.237Z,3.73
2018-04-28T11:43:38.492Z,4.07
2018-04-28T11:46:06.526Z,3.90
2018-04-28T11:48:34.795Z,3.23
2018-04-28T11:51:03.011Z,4.17
2018-04-28T11:53:31.027Z,3.40
2018-04-28T11:55:59.068Z,3.53
2018-04-28T11:58:27.885Z,3.23
2018-04-28T12:00:55.937Z,3.70
2018-04-28T12:03:24.369Z,3.50
2018-04-28T12:05:53.363Z,3.63
2018-04-28T12:08:21.358Z,3.60
2018-04-28T12:10:49.344Z,3.60
2018-04-28T12:13:18.546Z,3.37
2018-04-28T12:15:46.820Z,5.87
2018-04-28T12:18:14.775Z,3.87
2018-04-28T12:20:42.872Z,3.67
2018-04-28T12:27:46.007Z,3.93
2018-04-28T12:30:14.251Z,4.40
2018-04-28T12:32:42.490Z,3.23
2018-04-28T12:35:10.727Z,3.53
2018-04-28T12:37:38.783Z,3.97
2018-04-28T12:40:07.804Z,3.70
2018-04-28T12:42:35.954Z,3.60
2018-04-28T12:45:04.818Z,3.97
2018-04-28T12:47:33.516Z,3.50
2018-04-28T12:50:01.758Z,4.03
2018-04-28T12:52:29.941Z,3.73
2018-04-28T12:54:58.959Z,3.50
2018-04-28T12:57:27.923Z,3.50
2018-04-28T12:59:56.109Z,3.70
2018-04-28T13:02:24.463Z,3.77
2018-04-28T13:04:53.333Z,4.03
2018-04-28T13:07:21.225Z,3.67
2018-04-28T13:09:49.229Z,4.13
2018-04-28T13:12:17.515Z,3.87
2018-04-28T13:14:45.755Z,3.80
2018-04-28T13:17:14.000Z,3.50
2018-04-28T13:19:42.109Z,3.70
2018-04-28T13:22:10.233Z,3.50
2018-04-28T13:24:38.443Z,3.33
2018-04-28T13:27:07.314Z,3.63
2018-04-28T13:29:35.603Z,3.90
2018-04-28T13:32:03.497Z,3.83
2018-04-28T13:34:31.812Z,3.47
2018-04-28T13:37:00.726Z,4.07
2018-04-28T13:39:28.851Z,4.00
2018-04-28T13:41:57.209Z,3.40
2018-04-28T13:44:25.408Z,3.80
2018-04-28T13:46:53.461Z,3.40
2018-04-28T13:49:21.644Z,3.43
2018-04-28T13:51:50.135Z,3.37
2018-04-28T13:54:18.421Z,3.37
2018-04-28T13:56:46.325Z,3.37
2018-04-28T13:59:14.514Z,3.97
2018-04-28T14:01:42.560Z,3.40
2018-04-28T14:04:11.473Z,3.93
2018-04-28T14:06:40.222Z,4.20
2018-04-28T14:09:08.412Z,4.27
2018-04-28T14:11:36.628Z,3.97
2018-04-28T14:14:05.699Z,4.30
2018-04-28T14:16:33.981Z,3.57
2018-04-28T14:19:02.424Z,3.80
2018-04-28T14:21:30.545Z,4.13
2018-04-28T14:23:58.907Z,4.60
2018-04-28T14:26:26.951Z,3.90
2018-04-28T14:28:54.959Z,4.27
2018-04-28T14:31:23.198Z,3.57
2018-04-28T14:33:51.443Z,3.20
2018-04-28T14:36:19.648Z,3.67
2018-04-28T14:38:48.891Z,3.43
2018-04-28T14:41:17.107Z,3.97
2018-04-28T14:43:45.175Z,3.53
2018-04-28T14:46:14.269Z,3.00
2018-04-28T14:48:42.477Z,3.87
2018-04-28T14:51:10.752Z,3.80
2018-04-28T14:53:38.757Z,3.80
2018-04-28T14:56:06.842Z,3.77
2018-04-28T14:58:35.086Z,3.33
2018-04-28T15:01:03.904Z,3.53
2018-04-28T15:03:32.090Z,3.70
2018-04-28T15:06:01.023Z,3.40
2018-04-28T15:08:29.395Z,3.77
2018-04-28T15:10:57.566Z,3.67
2018-04-28T15:13:25.480Z,3.33
2018-04-28T15:15:53.702Z,3.60
2018-04-28T15:18:21.633Z,4.07
2018-04-28T15:20:49.785Z,3.97
2018-04-28T15:23:18.628Z,3.80
2018-04-28T15:25:46.932Z,3.50
2018-04-28T15:28:15.123Z,3.67
2018-04-28T15:30:43.421Z,3.80
2018-04-28T15:33:11.431Z,4.60
2018-04-28T15:35:39.706Z,4.00
2018-04-28T15:38:07.759Z,3.70
2018-04-28T15:40:35.992Z,4.10
2018-04-28T15:43:04.238Z,4.27
2018-04-28T15:45:32.409Z,3.90
2018-04-28T15:48:01.704Z,4.00
2018-04-28T15:50:29.952Z,3.63
2018-04-28T15:52:58.190Z,4.17
2018-04-28T15:55:26.469Z,3.70
2018-04-28T15:57:54.681Z,3.90
2018-04-28T16:00:22.917Z,3.83
2018-04-28T16:02:51.217Z,3.93
2018-04-28T16:05:19.407Z,4.13
2018-04-28T16:07:48.242Z,4.00
2018-04-28T16:10:16.478Z,4.20
2018-04-28T16:12:44.718Z,3.93
2018-04-28T16:15:13.133Z,4.10
2018-04-28T16:17:41.008Z,4.07
2018-04-28T16:20:09.250Z,3.90
2018-04-28T16:22:37.421Z,4.23
2018-04-28T16:25:06.263Z,3.90
2018-04-28T16:27:35.106Z,3.90
2018-04-28T16:30:03.326Z,3.90
2018-04-28T16:32:32.364Z,3.73
2018-04-28T16:35:01.206Z,4.17
2018-04-28T16:37:29.700Z,4.20
2018-04-28T16:39:57.717Z,3.70
2018-04-28T16:42:25.987Z,4.03
2018-04-28T16:44:55.030Z,4.17
2018-04-28T16:47:23.198Z,3.90
2018-04-28T16:49:52.092Z,4.20
2018-04-28T16:52:20.279Z,3.90
2018-04-28T16:54:48.341Z,4.07
2018-04-28T16:57:16.621Z,4.07
2018-04-28T16:59:44.806Z,4.03
2018-04-28T17:02:13.107Z,3.70
2018-04-28T17:04:41.291Z,3.77
2018-04-28T17:07:09.533Z,3.80
2018-04-28T17:09:37.440Z,4.30
2018-04-28T17:12:05.617Z,3.90
2018-04-28T17:14:34.688Z,4.10
2018-04-28T17:17:02.799Z,4.10
2018-04-28T17:19:30.919Z,4.37
2018-04-28T17:21:59.812Z,4.33
2018-04-28T17:24:28.077Z,4.37
2018-04-28T17:26:57.109Z,4.43
2018-04-28T17:29:25.287Z,4.27
2018-04-28T17:31:53.640Z,5.03
2018-04-28T17:34:21.605Z,4.70
2018-04-28T17:36:49.771Z,4.90
2018-04-28T17:39:17.922Z,4.50
2018-04-28T17:41:45.967Z,4.63
2018-04-28T17:44:14.014Z,4.40
2018-04-28T17:46:42.261Z,4.20
2018-04-28T17:49:11.298Z,3.83
2018-04-28T17:51:39.677Z,4.57
2018-04-28T17:54:07.768Z,4.20
2018-04-28T17:56:36.011Z,4.43
2018-04-28T17:59:04.262Z,4.43
2018-04-28T18:01:32.256Z,4.40
2018-04-28T18:04:00.541Z,4.03
2018-04-28T18:06:28.650Z,4.57
2018-04-28T18:08:56.830Z,4.33
2018-04-28T18:11:25.073Z,4.60
2018-04-28T18:13:54.101Z,5.27
2018-04-28T18:16:22.106Z,4.00
2018-04-28T18:18:50.338Z,4.20
2018-04-28T18:21:18.557Z,4.20
2018-04-28T18:23:47.664Z,5.33
2018-04-28T18:26:15.880Z,7.10
2018-04-28T18:28:44.734Z,13.20
2018-04-28T18:31:12.972Z,13.77
2018-04-28T18:33:41.174Z,15.90
2018-04-28T18:36:09.467Z,16.87
2018-04-28T18:38:37.707Z,8.23
2018-04-28T18:41:05.955Z,5.23
2018-04-28T18:43:34.981Z,5.37
2018-04-28T18:46:03.220Z,5.57
2018-04-28T18:48:31.471Z,7.10
2018-04-28T18:51:00.444Z,5.80
2018-04-28T18:53:28.653Z,5.37
2018-04-28T18:55:57.763Z,5.40
2018-04-28T18:58:25.770Z,4.60
2018-04-28T19:00:54.051Z,5.50
2018-04-28T19:03:22.246Z,6.37
2018-04-28T19:05:50.535Z,5.60
2018-04-28T19:08:18.778Z,5.73
2018-04-28T19:10:46.923Z,6.30
2018-04-28T19:13:15.016Z,5.90
2018-04-28T19:15:43.059Z,7.23
2018-04-28T19:18:11.275Z,6.30
2018-04-28T19:20:39.362Z,6.10
2018-04-28T19:23:07.540Z,6.00
2018-04-28T19:25:35.558Z,6.47
2018-04-28T19:28:04.127Z,6.10
2018-04-28T19:30:32.371Z,7.47
2018-04-28T19:33:00.613Z,7.77
2018-04-28T19:35:28.617Z,5.47
2018-04-28T19:37:56.899Z,6.20
2018-04-28T19:40:25.143Z,6.67
2018-04-28T19:42:53.275Z,6.67
2018-04-28T19:45:21.367Z,6.30
2018-04-28T19:47:50.212Z,5.70
2018-04-28T19:50:18.450Z,6.70
2018-04-28T19:52:46.692Z,6.83
2018-04-28T19:55:14.994Z,7.27
2018-04-28T19:57:43.233Z,6.63
2018-04-28T20:00:11.672Z,6.67
2018-04-28T20:02:39.860Z,6.17
2018-04-28T20:05:08.103Z,7.67
2018-04-28T20:07:36.344Z,8.93
2018-04-28T20:10:04.649Z,6.93
2018-04-28T20:12:32.883Z,7.03
2018-04-28T20:15:01.025Z,8.37
2018-04-28T20:17:29.172Z,7.33
2018-04-28T20:19:57.407Z,8.47
2018-04-28T20:22:37.258Z,7.60
2018-04-28T20:25:17.108Z,8.60
2018-04-28T20:27:45.110Z,8.13
2018-04-28T20:30:13.422Z,8.33
2018-04-28T20:32:41.591Z,7.27
2018-04-28T20:35:09.870Z,7.40
2018-04-28T20:37:38.115Z,6.83
2018-04-28T20:40:06.360Z,7.30
2018-04-28T20:42:34.598Z,7.20
2018-04-28T20:45:02.841Z,7.30
2018-04-28T20:47:30.994Z,7.10
2018-04-28T20:49:59.286Z,7.30
2018-04-28T20:52:28.361Z,7.67
2018-04-28T20:54:56.596Z,7.90
2018-04-28T20:57:24.845Z,7.53
2018-04-28T20:59:53.110Z,7.77
2018-04-28T21:02:21.676Z,9.37
2018-04-28T21:04:50.441Z,9.40
2018-04-28T21:07:18.559Z,9.97
2018-04-28T21:09:46.550Z,8.80
2018-04-28T21:12:14.685Z,8.23
2018-04-28T21:14:43.715Z,8.17
2018-04-28T21:17:11.958Z,8.00
2018-04-28T21:19:40.199Z,8.07
2018-04-28T21:22:08.339Z,9.03
2018-04-28T21:24:36.751Z,7.97
2018-04-28T21:27:04.588Z,9.00
2018-04-28T21:29:32.737Z,8.17
2018-04-28T21:32:01.018Z,8.67
2018-04-28T21:34:29.179Z,8.90
2018-04-28T21:36:57.970Z,8.57
2018-04-28T21:39:26.142Z,9.03
2018-04-28T21:41:54.299Z,9.27
2018-04-28T21:44:22.296Z,9.83
2018-04-28T21:46:50.475Z,10.63
2018-04-28T21:49:18.714Z,8.93
2018-04-28T21:51:46.846Z,10.67
2018-04-28T21:54:15.003Z,12.00
2018-04-28T21:56:43.245Z,13.00
2018-04-28T21:59:11.489Z,12.50
2018-04-28T22:01:39.730Z,12.63
2018-04-28T22:04:07.735Z,13.33
2018-04-28T22:06:35.975Z,12.43
2018-04-28T22:09:04.224Z,12.40
2018-04-28T22:11:32.432Z,11.23
2018-04-28T22:14:01.275Z,12.50
2018-04-28T22:16:30.316Z,12.27
2018-04-28T22:18:58.368Z,12.47
2018-04-28T22:21:26.525Z,11.97
2018-04-28T22:23:54.700Z,12.07
2018-04-28T22:26:22.811Z,11.70
2018-04-28T22:28:50.988Z,11.50
2018-04-28T22:31:19.231Z,10.43
2018-04-28T22:33:47.474Z,10.50
2018-04-28T22:36:15.715Z,8.40
2018-04-28T22:38:43.718Z,7.27
2018-04-28T22:41:11.943Z,7.07
2018-04-28T22:43:40.779Z,6.93
2018-04-28T22:46:09.025Z,7.17
2018-04-28T22:48:37.689Z,6.50
2018-04-28T22:51:05.956Z,6.60
2018-04-28T22:53:34.208Z,6.13
2018-04-28T22:56:03.227Z,6.00
2018-04-28T22:58:31.472Z,5.87
2018-04-28T23:00:59.713Z,6.47
2018-04-28T23:03:27.956Z,7.10
2018-04-28T23:05:56.137Z,6.73
2018-04-28T23:08:25.227Z,6.97
2018-04-28T23:10:53.470Z,6.93
2018-04-28T23:13:21.711Z,7.37
2018-04-28T23:15:49.953Z,7.10
2018-04-28T23:18:18.196Z,7.57
2018-04-28T23:20:46.340Z,7.50
2018-04-28T23:23:14.356Z,6.77
2018-04-28T23:25:42.530Z,7.53
2018-04-28T23:28:10.773Z,7.37
2018-04-28T23:30:38.956Z,8.10
2018-04-28T23:33:07.848Z,6.70
2018-04-28T23:35:36.099Z,7.33
2018-04-28T23:38:04.108Z,6.83
2018-04-28T23:40:32.450Z,7.30
2018-04-28T23:43:00.844Z,6.63
2018-04-28T23:45:29.060Z,6.70
2018-04-28T23:47:57.253Z,6.87
2018-04-28T23:50:25.309Z,6.70
2018-04-28T23:52:53.594Z,6.67
2018-04-28T23:55:22.625Z,6.97
2018-04-28T23:57:50.745Z,6.87
